EHGG/GRQ METAR and TAF weather

Enter ICAO airport designator
Station Type Date Time Source
EHGG METAR 2020/01/22 20:55 UTC NOAA

EHGG 222055Z AUTO 25002KT 0550 R23/0800U FZFG OVC000 M00/M01 Q1036 TEMPO 0300


Station Type Date Time Source
EHGG Decoded METAR 2020/01/22 20:55 UTC NOAA

Groningen Airport Eelde, Netherlands (EHGG) 53-08N 006-35E 4M
Jan 22, 2020 - 03:55 PM EST / 2020.01.22 2055 UTC
Wind: from the WSW (250 degrees) at 2 MPH (2 KT):0
Visibility: less than 1 mile:0
Sky conditions: overcast
Weather: freezing fog
Temperature: 32 F (0 C)
Dew Point: 30 F (-1 C)
Relative Humidity: 92%
Pressure (altimeter): 30.59 in. Hg (1036 hPa)
ob: EHGG 222055Z AUTO 25002KT 0550 R23/0800U FZFG OVC000 M00/M01 Q1036 TEMPO 0300
cycle: 21

Station Type Date Time Source
EHGG TAF 2020/01/22 19:05 UTC NOAA

TAF
AMD EHGG 221900Z 2219/2324 VRB03KT 0700 FG NSC
BECMG 2219/2221 BKN001 PROB30 2219/2309 0300
BECMG 2310/2313 21006KT 3000 BR -DZ BKN004 PROB40 2313/2320 6000 NSW BKN008

Example: see airport list